Time;durP1;ratioP1;P1;durP2;ratioP2;P2;SDS_P1;SDS_P2;PMS_P1;PMS_P2;Temp;Humidity;BMP_temperature;BMP_pressure;BME280_temperature;BME280_humidity;BME280_pressure;Samples;Min_cycle;Max_cycle;Signal;HPM_P1;HPM_P2
2022/07/27 00:01:42;;;;;;;5.85;2.05;;;;;;;15.53;55.30;100726.97;5003798;28;20050;-44
2022/07/27 00:04:17;;;;;;;5.03;2.92;;;;;;;15.50;55.83;100732.25;4996878;28;20402;-42
2022/07/27 00:06:45;;;;;;;3.42;1.92;;;;;;;15.47;55.71;100737.50;5000489;28;20053;-43
2022/07/27 00:09:12;;;;;;;4.30;2.08;;;;;;;15.44;55.47;100727.09;5001717;28;20050;-46
2022/07/27 00:11:39;;;;;;;3.97;1.50;;;;;;;15.40;55.69;100727.13;5004681;28;20119;-45
2022/07/27 00:14:06;;;;;;;3.53;1.40;;;;;;;15.37;55.70;100721.94;5001066;28;20057;-43
2022/07/27 00:16:33;;;;;;;5.93;1.95;;;;;;;15.33;55.94;100720.25;5003369;28;20099;-43
2022/07/27 00:19:00;;;;;;;5.95;2.58;;;;;;;15.30;56.02;100725.50;5002773;28;20072;-43
2022/07/27 00:21:26;;;;;;;5.30;2.75;;;;;;;15.26;56.20;100726.41;5005517;28;20041;-44
2022/07/27 00:23:54;;;;;;;6.72;3.05;;;;;;;15.22;56.43;100715.16;5000619;28;20510;-44
2022/07/27 00:26:21;;;;;;;7.15;2.60;;;;;;;15.15;56.41;100714.38;5002924;28;20096;-43
2022/07/27 00:28:48;;;;;;;7.55;2.70;;;;;;;15.12;56.27;100706.56;5007669;28;20072;-42
2022/07/27 00:31:15;;;;;;;5.75;2.75;;;;;;;15.10;56.63;100707.47;5003264;28;20054;-45
2022/07/27 00:33:42;;;;;;;6.80;2.65;;;;;;;15.06;56.67;100708.41;5002924;28;20046;-43
2022/07/27 00:36:09;;;;;;;5.32;2.83;;;;;;;15.01;56.57;100708.44;5003353;28;20486;-44
2022/07/27 00:38:37;;;;;;;9.50;2.78;;;;;;;14.99;57.09;100707.56;5003104;28;20087;-42
2022/07/27 00:41:03;;;;;;;7.50;2.40;;;;;;;14.95;56.93;100711.97;5001765;28;20053;-42
2022/07/27 00:43:30;;;;;;;3.70;2.55;;;;;;;14.92;57.71;100711.16;5005760;28;20053;-42
2022/07/27 00:45:57;;;;;;;6.47;2.53;;;;;;;14.88;57.88;100712.91;5003698;28;20050;-43
2022/07/27 00:48:23;;;;;;;4.95;2.95;;;;;;;14.84;57.69;100706.88;5000849;28;20367;-43
2022/07/27 00:50:54;;;;;;;7.72;2.42;;;;;;;14.83;57.75;100715.56;5006038;28;20054;-42
2022/07/27 00:53:20;;;;;;;6.05;1.75;;;;;;;14.82;57.93;100706.00;5003821;28;20039;-43
2022/07/27 00:55:47;;;;;;;5.68;1.83;;;;;;;14.82;58.33;100713.84;5005028;28;20042;-46
2022/07/27 00:58:15;;;;;;;4.63;1.33;;;;;;;14.84;58.16;100706.88;5006435;28;20046;-42
2022/07/27 01:00:43;;;;;;;4.97;1.45;;;;;;;14.84;58.79;100706.00;4998651;28;20689;-43
2022/07/27 01:03:10;;;;;;;3.13;1.35;;;;;;;14.85;58.74;100708.59;5002839;28;20049;-43
2022/07/27 01:05:37;;;;;;;4.30;1.48;;;;;;;14.85;58.91;100706.00;5004585;28;20058;-44
2022/07/27 01:08:11;;;;;;;5.45;1.45;;;;;;;14.85;58.98;100697.28;4999410;28;20045;-42
2022/07/27 01:10:39;;;;;;;4.38;2.08;;;;;;;14.87;58.85;100696.44;5001494;28;20433;-44
2022/07/27 01:13:06;;;;;;;6.72;1.77;;;;;;;14.88;59.03;100708.56;5000217;28;20058;-42
2022/07/27 01:15:37;;;;;;;2.45;1.33;;;;;;;14.88;59.31;100702.47;4998036;28;20038;-44
2022/07/27 01:18:10;;;;;;;6.22;1.80;;;;;;;14.85;59.06;100700.78;5002586;28;20104;-49
2022/07/27 01:20:39;;;;;;;5.28;2.15;;;;;;;14.80;58.92;100693.88;5000448;28;20057;-49
2022/07/27 01:23:06;;;;;;;5.35;2.13;;;;;;;14.76;58.88;100695.63;5002639;28;20054;-44
2022/07/27 01:25:32;;;;;;;7.00;2.22;;;;;;;14.72;59.02;100696.50;5002523;28;20045;-47
2022/07/27 01:27:59;;;;;;;4.30;1.65;;;;;;;14.69;58.42;100696.56;4997712;28;20054;-43
2022/07/27 01:30:25;;;;;;;6.68;2.08;;;;;;;14.65;58.24;100693.97;4998535;28;20568;-46
2022/07/27 01:33:02;;;;;;;5.15;1.83;;;;;;;14.59;58.70;100691.41;5003920;28;20058;-43
2022/07/27 01:35:28;;;;;;;4.63;2.22;;;;;;;14.55;59.26;100689.72;5000572;28;20065;-44
2022/07/27 01:37:55;;;;;;;4.30;2.10;;;;;;;14.52;59.40;100684.53;5004093;28;20057;-48
2022/07/27 01:40:22;;;;;;;3.72;1.48;;;;;;;14.47;58.90;100681.09;5001586;28;20050;-42
2022/07/27 01:42:49;;;;;;;2.90;2.25;;;;;;;14.44;59.32;100675.91;5004182;28;20438;-49
2022/07/27 01:45:16;;;;;;;5.22;1.50;;;;;;;14.39;59.56;100674.22;4998198;28;20054;-43
2022/07/27 01:47:43;;;;;;;6.53;1.95;;;;;;;14.35;59.30;100675.13;5002039;28;20050;-44
2022/07/27 01:50:10;;;;;;;6.47;2.42;;;;;;;14.28;59.65;100676.03;5007245;28;20050;-45
2022/07/27 01:52:38;;;;;;;6.10;2.15;;;;;;;14.21;59.63;100674.34;5005647;28;20053;-46
2022/07/27 01:55:07;;;;;;;4.10;2.60;;;;;;;14.16;59.87;100674.41;5005118;28;20046;-49
2022/07/27 01:57:34;;;;;;;5.97;2.53;;;;;;;14.11;59.62;100678.78;5005452;28;20164;-41
2022/07/27 02:00:03;;;;;;;5.28;2.58;;;;;;;14.07;59.10;100677.06;5004962;28;20112;-43
2022/07/27 02:02:30;;;;;;;6.38;2.95;;;;;;;14.01;59.81;100672.78;5009295;28;20120;-43
2022/07/27 02:04:56;;;;;;;4.47;2.15;;;;;;;13.96;59.60;100669.34;5008638;28;20061;-43
2022/07/27 02:07:23;;;;;;;7.45;2.55;;;;;;;13.97;59.46;100671.06;5007865;28;20050;-45
2022/07/27 02:09:50;;;;;;;5.85;3.17;;;;;;;13.96;59.43;100669.34;5007840;28;20100;-45
2022/07/27 02:15:10;;;;;;;7.82;2.72;;;;;;;13.88;59.89;100672.84;5007812;28;20554;-43
2022/07/27 02:17:42;;;;;;;4.75;2.30;;;;;;;13.83;60.09;100677.25;5006098;28;20053;-42
2022/07/27 02:20:11;;;;;;;6.13;1.85;;;;;;;13.81;60.44;100671.16;5007763;28;20069;-43
2022/07/27 02:22:38;;;;;;;3.90;1.65;;;;;;;13.81;61.01;100659.91;5007413;28;20060;-46
2022/07/27 02:25:05;;;;;;;5.35;1.95;;;;;;;13.79;61.17;100657.31;5007072;28;20100;-44
2022/07/27 02:27:32;;;;;;;4.90;2.80;;;;;;;13.77;60.62;100661.66;5008974;28;20644;-47
2022/07/27 02:29:59;;;;;;;3.63;2.17;;;;;;;13.76;60.39;100657.31;5007458;28;20111;-43
2022/07/27 02:32:26;;;;;;;6.35;2.03;;;;;;;13.74;60.42;100656.44;5003869;28;20061;-44
2022/07/27 02:34:53;;;;;;;5.00;2.55;;;;;;;13.74;60.86;100656.44;5004405;28;20105;-44
2022/07/27 02:37:20;;;;;;;5.78;2.20;;;;;;;13.72;60.54;100655.63;5004322;28;20525;-42
2022/07/27 02:39:46;;;;;;;7.22;1.98;;;;;;;13.69;60.45;100656.50;5000602;28;20056;-44
2022/07/27 02:42:13;;;;;;;5.25;2.08;;;;;;;13.68;60.88;100659.13;5005443;28;20054;-42
2022/07/27 02:44:40;;;;;;;5.15;1.77;;;;;;;13.66;60.99;100655.63;5009142;28;20552;-43
2022/07/27 02:47:06;;;;;;;7.40;3.20;;;;;;;13.61;60.55;100656.53;5008412;28;20046;-42
2022/07/27 02:49:33;;;;;;;7.13;2.78;;;;;;;13.60;61.34;100648.72;5000584;28;20045;-43
2022/07/27 02:52:00;;;;;;;7.13;2.00;;;;;;;13.56;61.23;100654.81;5002997;28;20049;-44
2022/07/27 02:54:27;;;;;;;4.88;2.35;;;;;;;13.54;61.43;100652.22;5004805;28;20548;-42
2022/07/27 02:56:55;;;;;;;3.50;2.03;;;;;;;13.51;61.69;100649.63;5004118;28;20103;-45
2022/07/27 02:59:21;;;;;;;7.25;3.45;;;;;;;13.51;61.80;100649.63;5003053;28;20413;-45
2022/07/27 03:01:48;;;;;;;4.25;2.00;;;;;;;13.46;60.87;100638.38;5001174;28;20050;-42
2022/07/27 03:04:17;;;;;;;5.18;1.70;;;;;;;13.45;62.07;100649.66;4985480;28;20081;-43
2022/07/27 03:06:43;;;;;;;5.40;2.10;;;;;;;13.41;61.68;100646.19;4997502;28;20050;-44
2022/07/27 03:09:10;;;;;;;7.13;2.90;;;;;;;13.40;61.39;100644.47;5004943;28;21168;-42
2022/07/27 03:11:38;;;;;;;4.22;2.00;;;;;;;13.35;62.07;100641.88;5007575;28;20068;-43
2022/07/27 03:14:05;;;;;;;5.80;1.90;;;;;;;13.33;61.53;100647.97;5002479;28;20096;-45
2022/07/27 03:16:31;;;;;;;4.53;2.05;;;;;;;13.29;62.45;100641.91;5008107;28;20072;-43
2022/07/27 03:18:58;;;;;;;4.13;1.90;;;;;;;13.29;61.73;100646.25;5006566;28;20053;-44
2022/07/27 03:21:24;;;;;;;4.35;1.90;;;;;;;13.27;62.68;100646.25;5006895;28;20061;-42
2022/07/27 03:23:51;;;;;;;4.72;2.10;;;;;;;13.26;62.33;100641.94;5006722;28;20053;-44
2022/07/27 03:26:18;;;;;;;5.57;2.33;;;;;;;13.23;61.56;100648.00;5008940;28;20053;-44
2022/07/27 03:28:44;;;;;;;7.03;2.08;;;;;;;13.23;62.82;100649.75;5005302;28;20050;-43
2022/07/27 03:31:11;;;;;;;6.57;2.00;;;;;;;13.22;61.96;100645.41;4999941;28;20045;-42
2022/07/27 03:33:38;;;;;;;8.35;2.33;;;;;;;13.19;62.19;100646.31;4998209;28;20141;-42
2022/07/27 03:36:06;;;;;;;4.65;1.85;;;;;;;13.19;61.88;100655.81;5003377;28;20054;-42
2022/07/27 03:38:32;;;;;;;5.78;2.45;;;;;;;13.17;62.01;100649.78;5002911;28;20046;-42
2022/07/27 03:40:59;;;;;;;3.92;1.95;;;;;;;13.13;62.04;100640.25;4999583;28;20096;-42
2022/07/27 03:43:26;;;;;;;8.68;2.22;;;;;;;13.11;62.28;100648.06;5004889;28;20053;-47
2022/07/27 03:45:52;;;;;;;7.80;2.08;;;;;;;13.06;62.77;100645.47;5003303;28;20053;-45
2022/07/27 03:48:19;;;;;;;6.20;2.53;;;;;;;13.06;62.30;100645.47;5008978;28;20983;-43
2022/07/27 03:50:46;;;;;;;5.03;2.33;;;;;;;13.04;62.92;100651.56;4996036;28;20057;-43
2022/07/27 03:53:12;;;;;;;4.70;2.08;;;;;;;13.03;62.87;100655.03;4997901;28;20053;-43
2022/07/27 03:55:39;;;;;;;22.67;2.42;;;;;;;12.98;62.59;100655.03;5004464;28;20046;-47
2022/07/27 03:58:06;;;;;;;5.70;2.35;;;;;;;12.93;63.19;100659.38;5004915;28;20062;-46
2022/07/27 04:00:32;;;;;;;4.88;1.80;;;;;;;12.89;63.79;100652.44;5003949;28;20116;-46
2022/07/27 04:02:59;;;;;;;5.82;2.45;;;;;;;12.87;63.39;100665.44;5004953;28;20104;-40
2022/07/27 04:05:26;;;;;;;7.30;2.20;;;;;;;12.82;62.88;100652.47;5003131;28;20346;-43
2022/07/27 04:07:55;;;;;;;7.65;2.13;;;;;;;12.80;63.46;100659.41;5000519;28;20072;-45
2022/07/27 04:10:23;;;;;;;4.10;1.85;;;;;;;12.80;63.66;100653.38;5004457;28;20112;-47
2022/07/27 04:12:55;;;;;;;5.63;2.17;;;;;;;12.78;64.07;100645.56;5005958;28;20173;-42
2022/07/27 04:15:22;;;;;;;5.03;1.75;;;;;;;12.79;64.47;100655.09;5001089;28;20059;-43
2022/07/27 04:17:49;;;;;;;6.50;2.10;;;;;;;12.81;63.24;100663.75;5005209;28;20045;-41
2022/07/27 04:20:22;;;;;;;4.32;1.60;;;;;;;12.83;63.71;100663.72;5002519;28;20046;-46
2022/07/27 04:22:48;;;;;;;6.18;1.80;;;;;;;12.83;63.40;100659.41;5006918;28;20050;-41
2022/07/27 04:25:15;;;;;;;7.55;2.13;;;;;;;12.84;64.59;100666.31;5002191;28;20082;-47
2022/07/27 04:27:42;;;;;;;5.70;2.15;;;;;;;12.84;64.46;100663.72;5007061;28;20041;-43
2022/07/27 04:30:09;;;;;;;10.35;2.42;;;;;;;12.84;63.36;100661.13;5006037;28;20092;-43
2022/07/27 04:32:36;;;;;;;6.93;2.00;;;;;;;12.83;64.43;100654.22;5006405;28;20046;-44
2022/07/27 04:35:05;;;;;;;7.32;2.40;;;;;;;12.84;64.68;100655.94;5003644;28;20117;-44
2022/07/27 04:37:32;;;;;;;4.40;2.50;;;;;;;12.87;63.63;100659.41;5004059;28;20049;-43
2022/07/27 04:39:59;;;;;;;8.02;2.03;;;;;;;12.87;64.34;100659.41;5001969;28;20123;-41
2022/07/27 04:42:27;;;;;;;8.13;2.50;;;;;;;12.88;64.92;100667.19;5004400;28;20075;-42
2022/07/27 04:44:54;;;;;;;3.42;1.73;;;;;;;12.88;63.74;100662.00;5001838;28;20509;-43
2022/07/27 04:47:20;;;;;;;6.82;2.78;;;;;;;12.89;64.39;100660.25;5003807;28;20402;-43
2022/07/27 04:49:47;;;;;;;4.40;1.90;;;;;;;12.90;64.06;100662.00;5000971;28;20059;-46
2022/07/27 04:52:15;;;;;;;6.07;2.00;;;;;;;12.91;64.49;100658.53;5002751;28;20104;-44
2022/07/27 04:54:42;;;;;;;3.15;1.63;;;;;;;12.93;64.84;100661.97;5001443;28;20058;-43
2022/07/27 04:57:09;;;;;;;3.78;1.40;;;;;;;12.93;65.35;100664.56;5006579;28;20119;-44
2022/07/27 04:59:35;;;;;;;4.60;1.60;;;;;;;12.93;64.24;100665.44;5002509;28;20053;-44
2022/07/27 05:02:02;;;;;;;5.22;2.63;;;;;;;12.92;65.36;100668.03;5000256;28;20484;-43
2022/07/27 05:04:29;;;;;;;4.80;2.03;;;;;;;12.92;65.05;100675.84;4998910;28;20057;-42
2022/07/27 05:06:56;;;;;;;7.25;2.20;;;;;;;12.90;64.75;100675.84;5002507;28;20046;-46
2022/07/27 05:09:23;;;;;;;4.40;1.75;;;;;;;12.90;64.97;100669.81;5003570;28;20046;-42
2022/07/27 05:11:50;;;;;;;4.40;1.77;;;;;;;12.91;64.22;100674.13;5004835;28;20054;-44
2022/07/27 05:14:17;;;;;;;4.95;1.80;;;;;;;12.91;65.43;100681.91;5003524;28;20050;-44
2022/07/27 05:16:47;;;;;;;16.25;2.22;;;;;;;12.91;64.98;100674.13;5000388;28;20092;-44
2022/07/27 05:19:14;;;;;;;4.30;1.48;;;;;;;12.92;65.68;100675.84;5001961;28;20056;-45
2022/07/27 05:21:41;;;;;;;3.95;1.75;;;;;;;12.96;64.96;100680.16;5001368;28;20042;-42
2022/07/27 05:24:08;;;;;;;3.45;1.20;;;;;;;12.98;66.05;100684.50;5004458;28;20109;-42
2022/07/27 05:26:36;;;;;;;5.22;1.77;;;;;;;13.05;64.92;100685.38;5009462;28;20049;-45
2022/07/27 05:29:03;;;;;;;6.10;2.22;;;;;;;13.12;65.97;100691.41;5009362;28;20436;-43
2022/07/27 05:31:30;;;;;;;3.35;1.40;;;;;;;13.20;65.33;100688.75;5001651;28;20104;-46
2022/07/27 05:33:57;;;;;;;5.10;2.17;;;;;;;13.27;65.64;100695.69;5005299;28;20618;-42
2022/07/27 05:36:24;;;;;;;3.92;1.33;;;;;;;13.35;65.56;100695.66;5006773;28;20080;-44
2022/07/27 05:38:51;;;;;;;4.43;1.60;;;;;;;13.42;66.21;100696.50;5002021;28;20177;-42
2022/07/27 05:41:25;;;;;;;4.63;1.65;;;;;;;13.49;66.00;100693.91;5006808;28;20120;-43
2022/07/27 05:43:53;;;;;;;4.13;1.60;;;;;;;13.54;64.92;100688.66;5009277;28;20048;-43
2022/07/27 05:46:21;;;;;;;3.22;1.58;;;;;;;13.60;65.36;100693.84;5005107;28;20081;-42
2022/07/27 05:48:48;;;;;;;4.75;1.48;;;;;;;13.62;65.52;100697.28;5006899;28;20595;-43
2022/07/27 05:51:15;;;;;;;3.03;1.70;;;;;;;13.71;65.87;100690.34;5001992;28;20100;-43
2022/07/27 05:53:41;;;;;;;4.40;1.75;;;;;;;13.80;65.94;100692.88;5004480;28;20108;-43
2022/07/27 05:56:08;;;;;;;5.72;2.15;;;;;;;13.99;66.43;100692.78;5008998;28;20052;-46
2022/07/27 05:58:35;;;;;;;7.72;2.83;;;;;;;14.10;65.44;100693.56;5007346;28;20128;-43
2022/07/27 06:01:02;;;;;;;6.22;2.63;;;;;;;14.24;66.21;100693.47;5001248;28;20054;-43
2022/07/27 06:03:29;;;;;;;5.78;2.33;;;;;;;14.39;65.77;100694.22;5004050;28;20132;-41
2022/07/27 06:07:57;;;;;;;6.57;1.92;;;;;;;14.54;65.49;100693.22;5006422;28;20065;-44
2022/07/27 06:08:43;;;;;;;4.80;2.13;;;;;;;14.72;65.88;100686.06;5003245;28;20042;-46
2022/07/27 06:11:10;;;;;;;3.78;2.03;;;;;;;14.86;65.00;100689.44;5005529;28;20045;-48
2022/07/27 06:13:37;;;;;;;5.05;1.88;;;;;;;15.00;65.45;100686.69;5009983;28;20104;-47
2022/07/27 06:16:08;;;;;;;3.85;2.10;;;;;;;15.16;64.73;100692.63;5007418;28;20053;-47
2022/07/27 06:18:35;;;;;;;6.40;2.13;;;;;;;15.32;64.52;100696.78;5003511;28;20842;-45
2022/07/27 06:21:02;;;;;;;4.80;1.80;;;;;;;15.44;64.14;100694.03;5003666;28;20050;-43
2022/07/27 06:23:29;;;;;;;4.28;2.28;;;;;;;15.54;63.76;100698.25;5002276;28;20045;-43
2022/07/27 06:25:56;;;;;;;3.53;1.73;;;;;;;15.66;64.29;100697.22;5009961;28;20041;-49
2022/07/27 06:28:22;;;;;;;6.38;2.50;;;;;;;15.86;63.84;100698.69;5006679;28;20046;-48
2022/07/27 06:30:49;;;;;;;5.88;2.17;;;;;;;16.08;63.98;100701.03;5001420;28;20054;-43
2022/07/27 06:33:16;;;;;;;3.72;2.42;;;;;;;16.30;63.66;100693.72;5001919;28;21721;-43
2022/07/27 06:35:42;;;;;;;6.45;1.77;;;;;;;16.54;62.99;100695.91;5006725;28;20053;-45
2022/07/27 06:38:10;;;;;;;4.90;1.95;;;;;;;16.76;62.91;100698.16;5005782;28;20041;-44
2022/07/27 06:40:37;;;;;;;4.15;1.95;;;;;;;16.97;62.48;100699.53;5003645;28;20065;-44
2022/07/27 06:43:03;;;;;;;4.70;1.80;;;;;;;17.16;62.17;100697.44;5003004;28;20058;-47
2022/07/27 06:45:30;;;;;;;4.65;2.15;;;;;;;17.34;61.64;100695.34;4999635;28;20105;-46
2022/07/27 06:47:57;;;;;;;5.53;1.77;;;;;;;17.55;61.36;100706.25;5000879;28;20046;-44
2022/07/27 06:50:23;;;;;;;3.30;1.90;;;;;;;17.76;61.67;100693.59;5001493;28;20045;-44
2022/07/27 06:52:50;;;;;;;5.05;2.08;;;;;;;17.96;60.89;100696.63;4996160;28;20065;-48
2022/07/27 06:55:17;;;;;;;5.65;2.17;;;;;;;18.13;60.85;100703.25;5003526;28;20046;-41
2022/07/27 06:57:45;;;;;;;4.35;1.40;;;;;;;18.27;60.28;100707.31;5001755;28;20100;-42
2022/07/27 07:00:12;;;;;;;6.38;1.33;;;;;;;18.39;59.83;100701.75;5002419;28;20061;-42
2022/07/27 07:02:50;;;;;;;4.22;1.50;;;;;;;18.57;60.18;100707.41;5004286;28;20046;-42
2022/07/27 07:05:17;;;;;;;3.65;1.73;;;;;;;18.85;59.55;100711.97;5001560;28;20045;-42
2022/07/27 07:07:44;;;;;;;3.33;1.40;;;;;;;19.12;58.82;100709.53;5001546;28;20042;-44
2022/07/27 07:10:12;;;;;;;3.55;2.22;;;;;;;19.41;58.38;100705.19;5007143;28;20042;-44
2022/07/27 07:12:39;;;;;;;4.90;2.10;;;;;;;19.63;57.67;100709.81;5001792;28;20100;-42
2022/07/27 07:15:06;;;;;;;6.63;1.98;;;;;;;19.77;57.21;100707.63;5005485;28;20449;-43
2022/07/27 07:17:33;;;;;;;6.35;2.03;;;;;;;19.89;56.26;100701.13;5006949;28;20056;-43
2022/07/27 07:20:00;;;;;;;3.95;2.05;;;;;;;19.88;56.19;100701.16;5005228;28;20394;-42
2022/07/27 07:22:27;;;;;;;5.32;1.33;;;;;;;19.89;56.50;100705.50;4998342;28;20069;-43
2022/07/27 07:24:54;;;;;;;3.40;2.40;;;;;;;20.00;56.50;100707.84;5007726;28;20613;-45
2022/07/27 07:27:28;;;;;;;3.17;1.38;;;;;;;20.26;56.68;100703.50;5001547;28;20038;-46
2022/07/27 07:29:54;;;;;;;5.97;2.05;;;;;;;20.51;56.64;100708.81;5000404;28;20046;-42
2022/07/27 07:32:23;;;;;;;7.10;1.92;;;;;;;20.70;56.44;100712.59;5002134;28;20054;-43
2022/07/27 07:34:57;;;;;;;8.73;1.65;;;;;;;20.96;56.49;100709.06;5001096;28;20076;-45
2022/07/27 07:37:23;;;;;;;5.53;2.00;;;;;;;21.18;55.72;100713.56;4998541;28;20055;-45
2022/07/27 07:39:59;;;;;;;7.90;1.92;;;;;;;21.51;55.66;100710.56;5005774;28;20054;-46
2022/07/27 07:42:51;;;;;;;5.20;1.92;;;;;;;21.75;54.74;100718.47;5004866;28;20127;-43
2022/07/27 07:45:19;;;;;;;6.93;1.88;;;;;;;21.95;55.05;100727.38;5002739;28;20057;-44
2022/07/27 07:47:46;;;;;;;7.75;2.33;;;;;;;22.17;53.81;100718.59;5001612;28;20512;-47
2022/07/27 07:50:13;;;;;;;6.40;2.20;;;;;;;22.36;54.06;100723.13;5001048;28;20050;-46
2022/07/27 07:52:40;;;;;;;7.53;2.90;;;;;;;22.40;53.23;100719.44;4994820;28;20398;-47
2022/07/27 07:55:07;;;;;;;8.43;2.38;;;;;;;22.40;53.15;100724.72;4999333;28;20081;-45
2022/07/27 07:57:34;;;;;;;9.13;2.38;;;;;;;22.37;53.57;100727.47;4995632;28;20049;-48
2022/07/27 08:00:03;;;;;;;7.13;2.58;;;;;;;22.18;53.41;100725.59;4999639;28;20046;-43
2022/07/27 08:02:29;;;;;;;9.98;3.38;;;;;;;21.94;53.88;100729.16;4998979;28;20058;-45
2022/07/27 08:04:58;;;;;;;6.53;2.38;;;;;;;21.88;54.09;100728.56;5006263;28;20077;-46
2022/07/27 08:07:25;;;;;;;8.93;3.00;;;;;;;21.77;54.86;100732.47;5006658;28;20166;-50
2022/07/27 08:09:51;;;;;;;6.68;2.75;;;;;;;21.65;54.25;100727.63;5002017;28;20050;-49
2022/07/27 08:12:18;;;;;;;9.43;3.08;;;;;;;21.57;55.05;100731.44;4999817;28;20058;-45
2022/07/27 08:14:45;;;;;;;10.32;2.83;;;;;;;21.50;55.14;100729.94;5003102;28;20077;-43
2022/07/27 08:17:11;;;;;;;5.93;2.70;;;;;;;21.35;55.21;100735.78;4999483;28;20097;-43
2022/07/27 08:19:38;;;;;;;8.65;3.35;;;;;;;21.24;55.27;100729.13;5006543;28;20046;-47
2022/07/27 08:22:05;;;;;;;9.95;3.13;;;;;;;21.09;55.22;100741.09;5003326;28;20089;-44
2022/07/27 08:24:32;;;;;;;10.75;3.13;;;;;;;21.03;55.81;100742.16;5002555;28;20084;-47
2022/07/27 08:26:59;;;;;;;8.55;2.75;;;;;;;21.01;56.20;100743.97;5003356;28;20084;-47
2022/07/27 08:29:26;;;;;;;7.22;2.90;;;;;;;21.05;55.96;100739.47;4997853;28;20049;-47
2022/07/27 08:32:02;;;;;;;6.90;3.15;;;;;;;21.14;56.33;100735.66;5006524;28;20061;-45
2022/07/27 08:34:31;;;;;;;7.53;2.83;;;;;;;21.37;55.98;100733.94;5002032;28;20057;-51
2022/07/27 08:36:58;;;;;;;7.72;2.97;;;;;;;21.74;56.52;100737.84;5002121;28;20099;-49
2022/07/27 08:39:25;;;;;;;6.43;2.55;;;;;;;22.26;56.33;100734.03;5004788;28;20046;-44
2022/07/27 08:42:12;;;;;;;5.05;2.05;;;;;;;22.78;54.56;100730.19;5007823;28;20074;-43
2022/07/27 08:44:40;;;;;;;4.85;2.40;;;;;;;23.14;54.81;100726.00;5009402;28;20104;-48
2022/07/27 08:47:13;;;;;;;4.40;2.00;;;;;;;23.48;53.48;100724.44;5006925;28;20482;-46
2022/07/27 08:49:41;;;;;;;4.55;2.25;;;;;;;23.73;53.24;100733.03;5004685;28;20060;-49
2022/07/27 08:52:11;;;;;;;7.28;2.50;;;;;;;23.92;51.93;100734.78;5001197;28;20049;-46
2022/07/27 08:54:39;;;;;;;6.32;2.17;;;;;;;24.05;51.16;100732.41;5005930;28;20050;-44
2022/07/27 08:57:07;;;;;;;4.55;2.70;;;;;;;23.99;51.27;100729.16;5005488;28;20046;-50
2022/07/27 08:59:34;;;;;;;7.65;2.20;;;;;;;24.02;51.66;100733.44;5004152;28;20054;-47
2022/07/27 09:02:02;;;;;;;5.13;2.00;;;;;;;24.04;50.90;100731.56;5006091;28;20124;-49
2022/07/27 09:04:30;;;;;;;8.00;2.55;;;;;;;24.09;51.25;100724.25;5007051;28;20064;-45
2022/07/27 09:06:56;;;;;;;6.80;2.83;;;;;;;24.19;50.35;100729.13;5009266;28;20470;-47
2022/07/27 09:09:23;;;;;;;5.85;2.00;;;;;;;24.24;50.50;100721.81;5003724;28;20050;-44
2022/07/27 09:14:42;;;;;;;8.43;3.15;;;;;;;24.90;49.96;100725.53;5028043;28;20398;-48
2022/07/27 09:17:26;;;;;;;4.95;3.28;;;;;;;25.03;49.38;100722.28;4999088;28;20132;-48
2022/07/27 09:20:16;;;;;;;7.88;3.25;;;;;;;25.01;48.26;100710.88;5023310;28;20090;-50
2022/07/27 09:25:25;;;;;;;7.20;2.13;;;;;;;25.43;47.50;100708.63;5003332;27;20406;-48
2022/07/27 09:28:12;;;;;;;6.40;2.42;;;;;;;25.46;46.45;100707.63;4999558;28;20132;-49
2022/07/27 09:30:41;;;;;;;5.63;2.15;;;;;;;25.25;46.93;100710.50;4999585;28;20054;-48
2022/07/27 09:33:09;;;;;;;5.90;2.03;;;;;;;25.43;47.61;100705.97;5000087;28;20042;-50
2022/07/27 09:35:36;;;;;;;3.10;1.50;;;;;;;25.76;46.87;100712.16;5001105;28;20046;-49
2022/07/27 09:38:20;;;;;;;4.53;2.00;;;;;;;25.84;45.62;100709.09;4996157;28;20054;-50
2022/07/27 09:40:58;;;;;;;5.15;1.70;;;;;;;25.85;46.17;100703.72;4998056;28;20081;-45
2022/07/27 09:43:25;;;;;;;5.55;1.70;;;;;;;26.16;46.57;100701.94;5002458;28;20046;-48
2022/07/27 09:46:11;;;;;;;5.85;2.05;;;;;;;26.22;45.28;100691.91;5000586;28;20247;-46
2022/07/27 09:48:38;;;;;;;6.13;2.13;;;;;;;26.23;45.09;100693.59;5000955;28;20046;-49
2022/07/27 09:51:08;;;;;;;4.90;1.67;;;;;;;26.13;44.80;100694.16;4998113;28;20057;-50
2022/07/27 09:53:56;;;;;;;5.00;2.17;;;;;;;25.74;45.06;100688.38;5002512;28;20124;-52
2022/07/27 09:56:25;;;;;;;6.32;1.88;;;;;;;25.52;45.25;100688.72;4998935;28;20054;-48
2022/07/27 09:58:58;;;;;;;4.53;1.60;;;;;;;25.36;44.90;100683.41;5031290;28;20549;-49
2022/07/27 10:01:27;;;;;;;5.43;1.77;;;;;;;25.21;45.22;100690.41;4997101;28;20958;-49
2022/07/27 10:03:57;;;;;;;4.65;1.85;;;;;;;25.32;46.50;100687.19;4999832;28;20050;-45
2022/07/27 10:06:25;;;;;;;5.50;2.08;;;;;;;25.72;45.76;100689.41;4999882;28;20625;-47
2022/07/27 10:08:53;;;;;;;4.68;1.77;;;;;;;25.92;45.20;100675.88;4999427;28;20058;-46
2022/07/27 10:11:21;;;;;;;5.28;2.15;;;;;;;25.87;44.12;100677.94;5008972;28;20093;-46
2022/07/27 10:13:50;;;;;;;4.03;1.50;;;;;;;25.72;43.83;100682.31;5004422;28;20054;-45
2022/07/27 10:16:21;;;;;;;4.57;1.90;;;;;;;25.73;43.55;100675.22;5001487;28;20054;-46
2022/07/27 10:19:19;;;;;;;5.68;1.88;;;;;;;25.72;44.52;100671.72;5000481;28;20399;-45
2022/07/27 10:21:47;;;;;;;8.02;2.00;;;;;;;25.87;44.03;100667.31;4985341;28;20061;-47
2022/07/27 10:24:32;;;;;;;5.03;1.80;;;;;;;25.84;44.39;100672.81;4997795;28;20339;-51
2022/07/27 10:27:25;;;;;;;3.63;1.75;;;;;;;26.00;43.89;100663.97;4998156;28;20069;-48
2022/07/27 10:29:53;;;;;;;4.53;1.60;;;;;;;26.12;43.76;100665.91;4996916;28;20101;-47
2022/07/27 10:32:26;;;;;;;6.07;1.30;;;;;;;26.42;44.32;100657.09;4998179;28;20054;-48
2022/07/27 10:34:53;;;;;;;4.70;1.67;;;;;;;26.53;42.38;100658.22;4995066;28;20042;-54
2022/07/27 10:37:26;;;;;;;5.72;1.75;;;;;;;26.61;41.74;100657.78;4986634;28;20511;-51
2022/07/27 10:42:46;;;;;;;4.28;1.58;;;;;;;26.81;41.80;100656.53;5029727;28;20433;-50
2022/07/27 10:45:19;;;;;;;5.20;1.42;;;;;;;26.93;41.29;100650.47;5015780;28;20060;-48
2022/07/27 10:47:49;;;;;;;3.85;1.88;;;;;;;27.04;41.70;100648.97;5018028;28;20054;-47
2022/07/27 10:52:55;;;;;;;7.07;3.15;;;;;;;27.42;40.97;100650.16;5058289;27;20404;-49
2022/07/27 11:03:38;;;;;;;3.30;1.52;;;;;;;27.14;39.44;100642.13;5034159;28;20890;-47
2022/07/27 11:06:16;;;;;;;4.03;1.30;;;;;;;27.00;39.63;100645.66;5019494;28;20575;-49
2022/07/27 11:09:03;;;;;;;3.08;1.40;;;;;;;26.84;40.59;100645.72;5022940;28;20129;-46
2022/07/27 11:11:51;;;;;;;3.70;1.17;;;;;;;26.88;40.30;100635.78;5017346;28;20490;-52
2022/07/27 11:14:18;;;;;;;2.80;1.15;;;;;;;26.91;40.36;100625.78;5022813;28;20497;-48
2022/07/27 11:16:57;;;;;;;3.63;1.00;;;;;;;27.02;40.57;100637.59;5023712;28;20045;-49
2022/07/27 11:19:44;;;;;;;4.13;0.90;;;;;;;27.05;39.85;100632.09;5016794;28;20113;-50
2022/07/27 11:22:11;;;;;;;3.08;1.38;;;;;;;27.17;39.33;100631.28;5021272;28;20433;-50
2022/07/27 11:24:54;;;;;;;2.72;1.23;;;;;;;27.23;39.00;100629.19;5023547;28;20050;-47
2022/07/27 11:27:21;;;;;;;3.60;1.02;;;;;;;27.17;39.66;100628.63;5020023;28;20173;-47
2022/07/27 11:29:51;;;;;;;2.30;1.33;;;;;;;27.11;38.97;100626.34;5023698;28;20137;-47
2022/07/27 11:32:18;;;;;;;3.35;1.63;;;;;;;27.04;39.35;100622.38;5018967;28;20049;-46
2022/07/27 11:34:46;;;;;;;4.65;2.28;;;;;;;27.05;38.59;100621.44;5018213;28;20045;-48
2022/07/27 11:37:21;;;;;;;4.35;0.90;;;;;;;26.98;38.77;100614.81;5021514;28;20046;-45
2022/07/27 11:39:58;;;;;;;4.07;1.35;;;;;;;26.95;38.47;100616.66;5019647;28;20132;-51
2022/07/27 11:42:45;;;;;;;3.70;1.17;;;;;;;27.10;39.25;100608.72;5020550;28;20077;-48
2022/07/27 11:45:12;;;;;;;3.88;1.52;;;;;;;27.14;39.29;100614.66;5022563;28;20050;-52
2022/07/27 11:47:38;;;;;;;6.57;2.50;;;;;;;27.12;38.22;100612.09;5021382;28;20565;-48
2022/07/27 11:50:07;;;;;;;4.95;1.20;;;;;;;26.96;37.86;100614.91;5021339;28;20049;-51
2022/07/27 11:52:35;;;;;;;4.75;2.08;;;;;;;26.89;38.42;100616.22;5019763;28;20060;-49
2022/07/27 11:55:01;;;;;;;4.95;0.90;;;;;;;26.86;39.01;100609.28;5018688;28;20540;-53